Soleil Laural Canyon Historical Data
Daily Summary for January 11, 2018 Units:  English    Metric   Both
Daily Weekly Monthly Yearly Custom
  High: Low: Average:
Temperature: 48.1 °F 9.9 °F 30.6 °F
Dew Point: 46.2 °F 6.6 °F 28.8 °F
Humidity: 97% 86% 93%
Wind Speed: 18.7mph 2.0mph 9.3mph
Wind Gust: 28.8mph - -
Wind- - West
Pressure: 30.02 in 29.58 in -
Precipitation: 0.02 in    
Historical Graphs
 
 
Tabular Data for January 11, 2018
Time Temperature Dew Point Pressure Wind Wind Speed Wind Gust Humidity Rainfall Rate (Hourly) solar
00:03 45.0 °F 43.9 °F 29.60 in South 7.6 mph 8.1 mph 96% 0.00 in 0.0 W/m2
00:13 44.9 °F 43.8 °F 29.60 in SSW 5.2 mph 5.2 mph 96% 0.00 in 0.0 W/m2
00:18 45.0 °F 44.2 °F 29.60 in SSW 6.7 mph 10.4 mph 97% 0.00 in 0.0 W/m2
00:28 45.1 °F 44.0 °F 29.60 in South 6.8 mph 7.2 mph 96% 0.00 in 0.0 W/m2
00:39 45.2 °F 44.1 °F 29.60 in SSW 5.3 mph 6.9 mph 96% 0.00 in 0.0 W/m2
00:58 45.5 °F 44.4 °F 29.59 in South 5.3 mph 8.4 mph 96% 0.00 in 0.0 W/m2
01:12 45.8 °F 44.7 °F 29.59 in South 5.8 mph 11.5 mph 96% 0.00 in 0.0 W/m2
01:22 46.0 °F 44.9 °F 29.59 in SSW 8.0 mph 10.0 mph 96% 0.00 in 0.0 W/m2
01:27 45.8 °F 44.7 °F 29.59 in SSW 8.0 mph 8.0 mph 96% 0.00 in 0.0 W/m2
01:32 45.9 °F 44.8 °F 29.59 in SW 8.9 mph 9.2 mph 96% 0.00 in 0.0 W/m2
01:37 45.8 °F 44.7 °F 29.59 in SSW 6.0 mph 11.0 mph 96% 0.00 in 0.0 W/m2
01:42 45.9 °F 44.8 °F 29.60 in SSW 8.0 mph 10.0 mph 96% 0.00 in 0.0 W/m2
01:51 46.0 °F 44.9 °F 29.60 in SSW 7.7 mph 8.1 mph 96% 0.00 in 0.0 W/m2
01:58 46.0 °F 44.9 °F 29.60 in SSW 6.7 mph 7.2 mph 96% 0.00 in 0.0 W/m2
02:17 46.5 °F 45.4 °F 29.61 in SSW 6.0 mph 6.0 mph 96% 0.00 in 0.0 W/m2
02:22 46.5 °F 45.4 °F 29.61 in SSW 7.0 mph 8.0 mph 96% 0.00 in 0.0 W/m2
02:28 46.3 °F 45.2 °F 29.61 in SSW 6.2 mph 6.2 mph 96% 0.00 in 0.0 W/m2
02:33 46.6 °F 45.5 °F 29.61 in South 6.4 mph 6.9 mph 96% 0.00 in 0.0 W/m2
02:41 47.1 °F 45.7 °F 29.62 in SSW 8.4 mph 8.4 mph 95% 0.00 in 0.0 W/m2
02:48 46.9 °F 45.5 °F 29.61 in SSW 4.4 mph 5.8 mph 95% 0.00 in 0.0 W/m2
02:53 46.9 °F 45.5 °F 29.61 in SSW 6.1 mph 8.1 mph 95% 0.00 in 0.0 W/m2
02:58 47.2 °F 45.8 °F 29.61 in SSW 7.7 mph 9.6 mph 95% 0.00 in 0.0 W/m2
03:11 47.1 °F 45.7 °F 29.61 in SSW 5.0 mph 9.6 mph 95% 0.00 in 0.0 W/m2
03:17 47.0 °F 45.6 °F 29.61 in South 3.4 mph 4.6 mph 95% 0.00 in 0.0 W/m2
03:22 47.1 °F 45.7 °F 29.61 in South 4.7 mph 5.8 mph 95% 0.00 in 0.0 W/m2
03:27 47.2 °F 45.8 °F 29.60 in South 4.7 mph 5.8 mph 95% 0.00 in 0.0 W/m2
03:41 47.2 °F 45.8 °F 29.60 in South 4.2 mph 8.1 mph 95% 0.00 in 0.0 W/m2
03:46 47.3 °F 45.7 °F 29.60 in SSW 4.2 mph 6.9 mph 94% 0.00 in 0.0 W/m2
03:52 47.1 °F 45.5 °F 29.60 in SSW 4.8 mph 5.8 mph 94% 0.00 in 0.0 W/m2
03:58 47.3 °F 45.7 °F 29.60 in South 3.7 mph 4.6 mph 94% 0.00 in 0.0 W/m2
04:03 47.1 °F 45.5 °F 29.60 in South 3.4 mph 5.8 mph 94% 0.00 in 0.0 W/m2
04:08 47.4 °F 45.8 °F 29.60 in SSW 7.0 mph 7.2 mph 94% 0.00 in 0.0 W/m2
04:13 47.2 °F 45.6 °F 29.60 in SSW 7.9 mph 8.4 mph 94% 0.00 in 0.0 W/m2
04:32 47.7 °F 45.8 °F 29.60 in South 8.9 mph 11.5 mph 93% 0.00 in 0.0 W/m2
04:38 47.7 °F 45.8 °F 29.61 in SSW 10.8 mph 10.8 mph 93% 0.00 in 0.0 W/m2
04:45 47.7 °F 45.8 °F 29.60 in South 6.7 mph 9.2 mph 93% 0.00 in 0.0 W/m2
04:54 47.7 °F 45.8 °F 29.59 in SSW 6.5 mph 9.6 mph 93% 0.00 in 0.0 W/m2
05:00 47.7 °F 45.8 °F 29.59 in SSW 7.5 mph 8.1 mph 93% 0.00 in 0.0 W/m2
05:05 47.7 °F 45.8 °F 29.58 in South 4.6 mph 5.8 mph 93% 0.00 in 0.0 W/m2
05:23 47.3 °F 45.4 °F 29.58 in SSW 3.4 mph 4.8 mph 93% 0.00 in 0.0 W/m2
05:35 47.2 °F 45.3 °F 29.60 in South 2.5 mph 5.8 mph 93% 0.00 in 0.0 W/m2
05:42 47.3 °F 45.4 °F 29.60 in SSW 8.3 mph 8.4 mph 93% 0.00 in 0.0 W/m2
05:55 47.3 °F 45.4 °F 29.60 in SW 7.8 mph 10.8 mph 93% 0.00 in 0.0 W/m2
06:01 47.7 °F 45.8 °F 29.61 in SSW 10.4 mph 10.4 mph 93% 0.00 in 0.0 W/m2
06:08 47.5 °F 45.6 °F 29.60 in SSW 5.8 mph 5.8 mph 93% 0.00 in 0.0 W/m2
06:16 47.8 °F 45.9 °F 29.59 in SSW 8.9 mph 9.6 mph 93% 0.00 in 0.0 W/m2
06:31 47.8 °F 45.9 °F 29.60 in SSW 10.8 mph 12.7 mph 93% 0.00 in 0.0 W/m2
06:38 48.1 °F 46.2 °F 29.60 in SSW 14.0 mph 17.3 mph 93% 0.00 in 0.0 W/m2
06:49 48.1 °F 45.9 °F 29.59 in SSW 11.8 mph 17.3 mph 92% 0.00 in 0.0 W/m2
06:54 48.1 °F 45.9 °F 29.59 in WSW 6.9 mph 6.9 mph 92% 0.00 in 0.0 W/m2
07:01 48.1 °F 45.9 °F 29.59 in SW 7.0 mph 8.4 mph 92% 0.00 in 0.0 W/m2
07:09 48.0 °F 45.5 °F 29.60 in SW 9.8 mph 11.5 mph 91% 0.00 in 0.0 W/m2
07:17 48.0 °F 45.8 °F 29.59 in SW 5.3 mph 7.2 mph 92% 0.00 in 0.0 W/m2
07:28 47.7 °F 45.5 °F 29.59 in SSW 9.9 mph 10.8 mph 92% 0.00 in 0.0 W/m2
07:33 47.8 °F 45.3 °F 29.59 in SW 8.8 mph 9.2 mph 91% 0.00 in 0.0 W/m2
07:39 47.4 °F 45.2 °F 29.60 in SW 6.3 mph 7.2 mph 92% 0.00 in 0.0 W/m2
07:49 47.1 °F 44.9 °F 29.60 in SW 5.2 mph 5.8 mph 92% 0.00 in 0.0 W/m2
07:54 46.8 °F 44.9 °F 29.60 in SSW 3.3 mph 4.6 mph 93% 0.00 in 0.0 W/m2
07:59 46.8 °F 44.9 °F 29.61 in SW 5.1 mph 5.8 mph 93% 0.00 in 0.0 W/m2
08:15 46.6 °F 44.7 °F 29.60 in SSW 7.0 mph 7.0 mph 93% 0.00 in 0.0 W/m2
08:25 46.3 °F 44.7 °F 29.61 in SSW 3.0 mph 3.5 mph 94% 0.00 in 0.0 W/m2
08:35 46.1 °F 44.7 °F 29.62 in SW 3.2 mph 3.5 mph 95% 0.00 in 5.0 W/m2
08:42 46.0 °F 44.6 °F 29.62 in WSW 2.0 mph 5.0 mph 95% 0.00 in 5.0 W/m2
08:49 45.8 °F 44.4 °F 29.62 in WSW 5.2 mph 5.8 mph 95% 0.00 in 0.0 W/m2
08:56 45.6 °F 44.3 °F 29.62 in WSW 5.2 mph 6.9 mph 95% 0.01 in 7.0 W/m2
09:04 45.5 °F 44.4 °F 29.63 in WSW 3.4 mph 4.6 mph 96% 0.02 in 5.0 W/m2
09:09 45.4 °F 44.3 °F 29.63 in West 3.7 mph 4.6 mph 96% 0.02 in 7.0 W/m2
09:14 45.2 °F 44.1 °F 29.63 in West 2.5 mph 2.5 mph 96% 0.02 in 11.0 W/m2
09:25 44.8 °F 43.7 °F 29.64 in WNW 7.2 mph 8.1 mph 96% 0.02 in 12.0 W/m2
09:35 44.4 °F 43.3 °F 29.64 in WNW 6.5 mph 8.1 mph 96% 0.02 in 9.0 W/m2
09:45 43.6 °F 42.5 °F 29.65 in WNW 6.1 mph 6.9 mph 96% 0.02 in 16.0 W/m2
09:52 42.8 °F 41.7 °F 29.65 in WNW 7.7 mph 9.6 mph 96% 0.02 in 9.0 W/m2
10:03 41.5 °F 40.4 °F 29.65 in NW 8.0 mph 8.1 mph 96% 0.00 in 16.0 W/m2
10:17 40.7 °F 39.6 °F 29.65 in WNW 7.8 mph 9.2 mph 96% 0.00 in 37.0 W/m2
10:22 40.5 °F 39.4 °F 29.65 in NW 8.1 mph 9.2 mph 96% 0.00 in 26.0 W/m2
10:28 40.3 °F 39.3 °F 29.65 in WNW 4.8 mph 5.8 mph 96% 0.00 in 30.0 W/m2
10:40 39.9 °F 38.9 °F 29.66 in WNW 6.7 mph 8.1 mph 96% 0.00 in 18.0 W/m2
10:53 39.5 °F 38.5 °F 29.66 in WNW 6.3 mph 8.1 mph 96% 0.00 in 30.0 W/m2
11:07 37.7 °F 36.7 °F 29.68 in WNW 8.2 mph 11.5 mph 96% 0.00 in 11.0 W/m2
11:14 36.1 °F 35.1 °F 29.68 in WNW 11.6 mph 15.0 mph 96% 0.00 in 16.0 W/m2
11:21 35.3 °F 34.3 °F 29.68 in WNW 12.2 mph 14.4 mph 96% 0.00 in 18.0 W/m2
11:26 34.7 °F 33.7 °F 29.68 in WNW 10.2 mph 15.0 mph 96% 0.00 in 19.0 W/m2
11:31 34.2 °F 33.2 °F 29.68 in West 8.4 mph 9.6 mph 96% 0.00 in 19.0 W/m2
11:36 33.6 °F 32.8 °F 29.69 in WNW 10.4 mph 12.7 mph 97% 0.00 in 18.0 W/m2
11:44 32.9 °F 31.9 °F 29.68 in WNW 10.4 mph 13.2 mph 96% 0.00 in 14.0 W/m2
11:51 32.3 °F 31.3 °F 29.68 in WNW 7.9 mph 10.4 mph 96% 0.00 in 19.0 W/m2
11:56 32.0 °F 31.2 °F 29.68 in WNW 9.0 mph 9.0 mph 97% 0.00 in 16.0 W/m2
12:02 31.6 °F 30.8 °F 29.67 in NW 5.7 mph 8.1 mph 97% 0.00 in 14.0 W/m2
12:15 30.2 °F 29.5 °F 29.67 in WNW 10.0 mph 11.5 mph 97% 0.00 in 21.0 W/m2
12:25 29.5 °F 28.5 °F 29.68 in WNW 6.6 mph 7.2 mph 96% 0.00 in 16.0 W/m2
12:30 29.3 °F 28.3 °F 29.68 in WNW 9.4 mph 12.7 mph 96% 0.00 in 19.0 W/m2
12:37 28.8 °F 27.8 °F 29.69 in WNW 7.5 mph 11.5 mph 96% 0.00 in 21.0 W/m2
12:59 27.9 °F 26.9 °F 29.70 in WNW 9.8 mph 9.8 mph 96% 0.00 in 18.0 W/m2
13:05 27.7 °F 26.7 °F 29.70 in NW 11.1 mph 16.1 mph 96% 0.00 in 19.0 W/m2
13:10 27.0 °F 25.8 °F 29.70 in West 10.1 mph 15.0 mph 95% 0.00 in 23.0 W/m2
13:30 25.8 °F 24.6 °F 29.70 in West 12.2 mph 14.4 mph 95% 0.00 in 32.0 W/m2
13:37 25.6 °F 24.4 °F 29.70 in WNW 10.0 mph 14.4 mph 95% 0.00 in 26.0 W/m2
13:49 24.8 °F 23.6 °F 29.71 in WNW 9.5 mph 9.5 mph 95% 0.00 in 30.0 W/m2
13:55 24.3 °F 22.8 °F 29.70 in NW 12.6 mph 12.6 mph 94% 0.00 in 49.0 W/m2
14:02 24.0 °F 22.5 °F 29.70 in West 13.1 mph 17.3 mph 94% 0.00 in 105.0 W/m2
14:08 24.0 °F 22.5 °F 29.70 in NW 6.3 mph 8.4 mph 94% 0.00 in 54.0 W/m2
14:15 23.9 °F 22.4 °F 29.71 in WNW 11.5 mph 16.1 mph 94% 0.00 in 51.0 W/m2
14:20 23.8 °F 22.3 °F 29.71 in WNW 7.8 mph 8.1 mph 94% 0.00 in 40.0 W/m2
14:29 23.6 °F 22.1 °F 29.72 in NW 10.8 mph 10.8 mph 94% 0.00 in 26.0 W/m2
14:35 23.3 °F 21.8 °F 29.72 in NW 12.3 mph 15.0 mph 94% 0.00 in 32.0 W/m2
14:40 23.3 °F 21.8 °F 29.73 in West 10.1 mph 12.7 mph 94% 0.00 in 18.0 W/m2
14:54 22.7 °F 21.0 °F 29.75 in West 10.3 mph 15.0 mph 93% 0.00 in 12.0 W/m2
15:03 22.1 °F 20.4 °F 29.74 in WNW 13.0 mph 15.6 mph 93% 0.00 in 14.0 W/m2
15:09 21.9 °F 20.2 °F 29.74 in WNW 10.5 mph 10.5 mph 93% 0.00 in 12.0 W/m2
15:15 21.7 °F 20.2 °F 29.75 in WNW 9.5 mph 10.4 mph 94% 0.00 in 9.0 W/m2
15:30 20.3 °F 18.8 °F 29.75 in NNW 12.8 mph 17.3 mph 94% 0.00 in 9.0 W/m2
15:40 19.9 °F 18.5 °F 29.76 in WNW 13.5 mph 17.3 mph 94% 0.00 in 14.0 W/m2
15:49 19.9 °F 18.7 °F 29.77 in WNW 8.4 mph 13.2 mph 95% 0.00 in 33.0 W/m2
16:08 19.0 °F 17.6 °F 29.78 in WNW 13.4 mph 17.3 mph 94% 0.00 in 12.0 W/m2
16:14 19.0 °F 17.8 °F 29.78 in NW 10.2 mph 15.0 mph 95% 0.00 in 12.0 W/m2
16:23 18.9 °F 17.7 °F 29.78 in WNW 8.3 mph 10.4 mph 95% 0.00 in 5.0 W/m2
16:28 18.9 °F 17.7 °F 29.79 in WNW 6.4 mph 8.4 mph 95% 0.00 in 5.0 W/m2
16:32 18.8 °F 17.6 °F 29.79 in NW 8.8 mph 15.0 mph 95% 0.00 in 0.0 W/m2
16:37 18.7 °F 17.5 °F 29.79 in NW 9.1 mph 9.2 mph 95% 0.00 in 0.0 W/m2
16:42 18.6 °F 17.4 °F 29.80 in WNW 7.2 mph 7.2 mph 95% 0.00 in 0.0 W/m2
16:51 17.8 °F 16.1 °F 29.81 in WNW 13.2 mph 18.4 mph 93% 0.00 in 0.0 W/m2
17:00 17.6 °F 15.9 °F 29.82 in WNW 12.9 mph 17.3 mph 93% 0.00 in 0.0 W/m2
17:07 17.3 °F 15.4 °F 29.81 in WNW 10.0 mph 22.0 mph 92% 0.00 in 0.0 W/m2
17:13 17.1 °F 15.2 °F 29.82 in WNW 18.6 mph 20.4 mph 92% 0.00 in 0.0 W/m2
17:21 16.7 °F 14.5 °F 29.83 in WNW 10.9 mph 21.9 mph 91% 0.00 in 0.0 W/m2
17:26 16.6 °F 14.4 °F 29.83 in NNW 10.8 mph 13.2 mph 91% 0.00 in 0.0 W/m2
17:36 16.4 °F 14.2 °F 29.83 in NW 11.1 mph 20.7 mph 91% 0.00 in 0.0 W/m2
17:41 16.1 °F 13.7 °F 29.84 in NW 10.3 mph 15.0 mph 90% 0.00 in 0.0 W/m2
17:44 16.0 °F 13.6 °F 29.84 in WNW 12.5 mph 16.1 mph 90% 0.00 in 0.0 W/m2
17:49 15.9 °F 13.5 °F 29.84 in NW 16.0 mph 28.8 mph 90% 0.00 in 0.0 W/m2
17:54 16.0 °F 13.6 °F 29.85 in NW 9.0 mph 15.0 mph 90% 0.00 in 0.0 W/m2
17:59 15.9 °F 13.5 °F 29.85 in NW 12.8 mph 16.1 mph 90% 0.00 in 0.0 W/m2
18:07 15.9 °F 13.5 °F 29.85 in West 10.1 mph 16.1 mph 90% 0.00 in 0.0 W/m2
18:21 15.9 °F 13.5 °F 29.87 in West 11.0 mph 12.7 mph 90% 0.00 in 0.0 W/m2
18:28 15.7 °F 13.3 °F 29.88 in West 8.6 mph 12.0 mph 90% 0.00 in 0.0 W/m2
18:33 15.5 °F 13.1 °F 29.88 in WNW 11.5 mph 18.0 mph 90% 0.00 in 0.0 W/m2
18:40 15.2 °F 12.8 °F 29.87 in West 15.4 mph 16.1 mph 90% 0.00 in 0.0 W/m2
18:45 15.0 °F 12.3 °F 29.88 in WNW 13.2 mph 21.6 mph 89% 0.00 in 0.0 W/m2
18:50 14.9 °F 12.2 °F 29.89 in WNW 10.1 mph 21.9 mph 89% 0.00 in 0.0 W/m2
18:55 14.6 °F 11.9 °F 29.89 in NW 12.8 mph 15.0 mph 89% 0.00 in 0.0 W/m2
19:00 14.4 °F 11.5 °F 29.89 in WNW 14.8 mph 21.9 mph 88% 0.00 in 0.0 W/m2
19:05 14.3 °F 11.7 °F 29.90 in West 17.0 mph 26.5 mph 89% 0.00 in 0.0 W/m2
19:10 14.2 °F 11.3 °F 29.90 in NW 7.6 mph 12.7 mph 88% 0.00 in 0.0 W/m2
19:15 14.1 °F 11.2 °F 29.90 in WNW 14.5 mph 23.0 mph 88% 0.00 in 0.0 W/m2
19:20 14.1 °F 11.5 °F 29.89 in NW 10.2 mph 12.0 mph 89% 0.00 in 0.0 W/m2
19:25 14.0 °F 11.1 °F 29.90 in WNW 11.8 mph 16.1 mph 88% 0.00 in 0.0 W/m2
19:33 13.8 °F 10.9 °F 29.91 in NW 13.9 mph 17.3 mph 88% 0.00 in 0.0 W/m2
19:38 13.6 °F 10.7 °F 29.91 in WNW 14.2 mph 18.4 mph 88% 0.00 in 0.0 W/m2
19:48 13.4 °F 10.5 °F 29.91 in NW 11.3 mph 16.1 mph 88% 0.00 in 0.0 W/m2
19:49 13.4 °F 10.5 °F 29.91 in NW 12.8 mph 16.8 mph 88% 0.00 in 0.0 W/m2
19:56 13.4 °F 10.5 °F 29.92 in NNW 12.2 mph 17.3 mph 88% 0.00 in 0.0 W/m2
20:11 13.1 °F 10.0 °F 29.92 in WNW 15.7 mph 21.9 mph 87% 0.00 in 0.0 W/m2
20:16 13.1 °F 10.2 °F 29.92 in WNW 11.7 mph 19.6 mph 88% 0.00 in 0.0 W/m2
20:21 13.1 °F 10.2 °F 29.93 in NNW 8.7 mph 10.4 mph 88% 0.00 in 0.0 W/m2
20:26 13.0 °F 10.1 °F 29.93 in West 14.6 mph 23.0 mph 88% 0.00 in 0.0 W/m2
20:37 13.1 °F 10.2 °F 29.93 in WNW 16.1 mph 21.9 mph 88% 0.00 in 0.0 W/m2
20:45 13.1 °F 10.2 °F 29.93 in WNW 13.4 mph 15.0 mph 88% 0.00 in 0.0 W/m2
20:54 12.9 °F 9.8 °F 29.94 in NW 18.7 mph 20.7 mph 87% 0.00 in 0.0 W/m2
21:15 12.6 °F 9.5 °F 29.95 in SW 10.3 mph 12.0 mph 87% 0.00 in 0.0 W/m2
21:27 12.4 °F 9.3 °F 29.96 in WNW 18.1 mph 24.2 mph 87% 0.00 in 0.0 W/m2
21:32 12.3 °F 9.2 °F 29.96 in NW 11.7 mph 21.9 mph 87% 0.00 in 0.0 W/m2
21:45 11.8 °F 8.4 °F 29.96 in NW 11.8 mph 19.6 mph 86% 0.00 in 0.0 W/m2
21:50 11.6 °F 8.2 °F 29.97 in NW 13.8 mph 21.9 mph 86% 0.00 in 0.0 W/m2
21:55 11.4 °F 8.0 °F 29.97 in NW 14.4 mph 16.1 mph 86% 0.00 in 0.0 W/m2
22:03 11.2 °F 7.8 °F 29.97 in West 11.0 mph 12.7 mph 86% 0.00 in 0.0 W/m2
22:13 11.2 °F 8.1 °F 29.97 in WNW 17.3 mph 17.3 mph 87% 0.00 in 0.0 W/m2
22:18 11.1 °F 7.7 °F 29.98 in NW 11.5 mph 16.1 mph 86% 0.00 in 0.0 W/m2
22:23 11.2 °F 7.8 °F 29.98 in NNW 11.0 mph 17.3 mph 86% 0.00 in 0.0 W/m2
22:38 11.1 °F 7.7 °F 29.99 in WNW 10.2 mph 19.6 mph 86% 0.00 in 0.0 W/m2
22:56 11.1 °F 7.7 °F 30.00 in NW 11.2 mph 16.1 mph 86% 0.00 in 0.0 W/m2
23:06 10.9 °F 7.5 °F 30.00 in NW 8.8 mph 17.3 mph 86% 0.00 in 0.0 W/m2
23:11 10.8 °F 7.4 °F 30.00 in NW 13.6 mph 18.4 mph 86% 0.00 in 0.0 W/m2
23:16 10.7 °F 7.3 °F 30.00 in NNW 12.9 mph 15.0 mph 86% 0.00 in 0.0 W/m2
23:23 10.5 °F 7.1 °F 30.01 in NW 10.1 mph 10.4 mph 86% 0.00 in 0.0 W/m2
23:28 10.4 °F 7.0 °F 30.01 in NW 16.4 mph 20.7 mph 86% 0.00 in 0.0 W/m2
23:38 10.2 °F 6.8 °F 30.01 in NW 11.2 mph 11.2 mph 86% 0.00 in 0.0 W/m2
23:43 10.1 °F 6.7 °F 30.02 in NW 11.4 mph 18.4 mph 86% 0.00 in 0.0 W/m2
23:48 10.0 °F 6.6 °F 30.02 in WNW 14.8 mph 18.4 mph 86% 0.00 in 0.0 W/m2
23:54 9.9 °F 6.6 °F 30.02 in NW 10.4 mph 10.4 mph 86% 0.00 in 0.0 W/m2
Soleil - Laurel Canyon
Compliments of Weather Underground - 2.5 mb